createdAt,value
2022-11-13T00:00:24.338Z,6.20
2022-11-13T00:03:10.632Z,6.18
2022-11-13T00:06:00.459Z,6.20
2022-11-13T00:08:46.765Z,6.14
2022-11-13T00:11:33.401Z,6.17
2022-11-13T00:14:19.687Z,6.11
2022-11-13T00:17:06.940Z,6.12
2022-11-13T00:19:53.000Z,6.12
2022-11-13T00:22:39.276Z,6.03
2022-11-13T00:25:25.291Z,6.01
2022-11-13T00:28:11.843Z,6.04
2022-11-13T00:31:00.329Z,6.12
2022-11-13T00:34:14.174Z,6.15
2022-11-13T00:36:55.357Z,6.17
2022-11-13T00:39:41.340Z,6.16
2022-11-13T00:42:27.449Z,6.19
2022-11-13T00:45:14.109Z,6.19
2022-11-13T00:48:00.183Z,6.15
2022-11-13T00:50:47.821Z,6.15
2022-11-13T00:53:34.298Z,6.11
2022-11-13T00:56:20.380Z,6.16
2022-11-13T00:59:06.609Z,6.20
2022-11-13T01:01:52.721Z,6.18
2022-11-13T01:04:38.956Z,6.09
2022-11-13T01:07:26.396Z,6.03
2022-11-13T01:10:13.303Z,5.96
2022-11-13T01:12:59.402Z,5.87
2022-11-13T01:15:46.447Z,5.89
2022-11-13T01:18:32.696Z,5.79
2022-11-13T01:21:21.099Z,5.86
2022-11-13T01:24:08.916Z,5.87
2022-11-13T01:26:55.044Z,5.84
2022-11-13T01:29:41.234Z,5.78
2022-11-13T01:32:27.330Z,5.80
2022-11-13T01:35:13.589Z,5.95
2022-11-13T01:37:59.784Z,5.85
2022-11-13T01:40:47.787Z,5.85
2022-11-13T01:43:37.173Z,5.88
2022-11-13T01:46:27.731Z,5.99
2022-11-13T01:49:25.693Z,6.05
2022-11-13T01:52:15.935Z,6.05
2022-11-13T01:55:06.025Z,6.09
2022-11-13T01:57:53.417Z,6.19
2022-11-13T02:00:39.596Z,6.23
2022-11-13T02:03:25.845Z,6.22
2022-11-13T02:06:12.062Z,6.27
2022-11-13T02:08:58.317Z,6.25
2022-11-13T02:11:45.474Z,6.18
2022-11-13T02:14:34.532Z,6.21
2022-11-13T02:17:27.424Z,6.24
2022-11-13T02:20:15.224Z,6.24
2022-11-13T02:23:12.799Z,6.29
2022-11-13T02:26:00.903Z,6.32
2022-11-13T02:28:47.021Z,6.28
2022-11-13T02:31:33.299Z,6.20
2022-11-13T02:34:19.412Z,6.15
2022-11-13T02:37:05.591Z,6.09
2022-11-13T02:39:51.780Z,6.05
2022-11-13T02:42:39.134Z,6.07
2022-11-13T02:45:25.617Z,5.98
2022-11-13T02:48:12.125Z,5.96
2022-11-13T02:50:58.294Z,5.98
2022-11-13T02:53:44.642Z,5.92
2022-11-13T02:56:30.982Z,5.90
2022-11-13T02:59:18.549Z,5.81
2022-11-13T03:02:04.634Z,5.83
2022-11-13T03:05:11.447Z,5.84
2022-11-13T03:07:56.946Z,5.74
2022-11-13T03:10:43.134Z,5.68
2022-11-13T03:13:29.315Z,5.63
2022-11-13T03:16:18.777Z,5.62
2022-11-13T03:19:05.318Z,5.59
2022-11-13T03:21:51.652Z,5.54
2022-11-13T03:24:37.874Z,5.46
2022-11-13T03:27:23.950Z,5.44
2022-11-13T03:30:11.277Z,5.46
2022-11-13T03:32:58.877Z,5.44
2022-11-13T03:35:47.132Z,5.41
2022-11-13T03:38:34.266Z,5.34
2022-11-13T03:41:20.688Z,5.41
2022-11-13T03:44:06.912Z,5.46
2022-11-13T03:46:53.128Z,5.40
2022-11-13T03:49:40.733Z,5.41
2022-11-13T03:52:26.779Z,5.41
2022-11-13T03:55:12.901Z,5.45
2022-11-13T03:57:59.656Z,5.45
2022-11-13T04:00:46.971Z,5.49
2022-11-13T04:03:33.337Z,5.48
2022-11-13T04:06:21.874Z,5.51
2022-11-13T04:09:07.908Z,5.59
2022-11-13T04:11:54.073Z,5.51
2022-11-13T04:14:40.381Z,5.45
2022-11-13T04:17:26.562Z,5.44
2022-11-13T04:20:13.351Z,5.39
2022-11-13T04:23:01.217Z,5.41
2022-11-13T04:25:49.525Z,5.45
2022-11-13T04:28:35.504Z,5.41
2022-11-13T04:31:21.696Z,5.43
2022-11-13T04:34:07.780Z,5.42
2022-11-13T04:36:53.938Z,5.38
2022-11-13T04:39:41.413Z,5.36
2022-11-13T04:42:45.411Z,5.27
2022-11-13T04:45:31.862Z,5.25
2022-11-13T04:48:18.000Z,5.24
2022-11-13T04:51:04.215Z,5.11
2022-11-13T04:53:50.292Z,5.06
2022-11-13T04:56:37.875Z,5.01
2022-11-13T04:59:24.506Z,4.92
2022-11-13T05:02:10.637Z,4.96
2022-11-13T05:05:01.806Z,4.97
2022-11-13T05:07:50.748Z,4.92
2022-11-13T05:10:36.958Z,4.84
2022-11-13T05:13:24.570Z,4.80
2022-11-13T05:16:13.559Z,4.81
2022-11-13T05:18:59.917Z,4.82
2022-11-13T05:21:46.250Z,4.80
2022-11-13T05:24:32.577Z,4.79
2022-11-13T05:27:19.046Z,4.74
2022-11-13T05:30:07.783Z,4.69
2022-11-13T05:32:54.003Z,4.60
2022-11-13T05:35:39.948Z,4.57
2022-11-13T05:38:26.097Z,4.55
2022-11-13T05:41:14.326Z,4.52
2022-11-13T05:44:00.607Z,4.47
2022-11-13T05:46:48.183Z,4.37
2022-11-13T05:49:34.224Z,4.26
2022-11-13T05:52:20.509Z,4.25
2022-11-13T05:55:07.931Z,4.26
2022-11-13T05:57:54.211Z,4.21
2022-11-13T06:00:40.180Z,4.20
2022-11-13T06:03:27.875Z,4.23
2022-11-13T06:06:16.042Z,4.19
2022-11-13T06:09:05.073Z,4.17
2022-11-13T06:11:51.305Z,4.18
2022-11-13T06:14:37.279Z,4.06
2022-11-13T06:17:23.441Z,4.15
2022-11-13T06:20:11.651Z,4.21
2022-11-13T06:22:59.012Z,4.21
2022-11-13T06:25:45.641Z,4.27
2022-11-13T06:28:31.898Z,4.32
2022-11-13T06:31:20.189Z,4.31
2022-11-13T06:34:07.147Z,4.21
2022-11-13T06:36:54.435Z,4.25
2022-11-13T06:39:40.845Z,4.25
2022-11-13T06:42:26.768Z,4.33
2022-11-13T06:45:13.013Z,4.30
2022-11-13T06:47:59.121Z,4.35
2022-11-13T06:50:48.411Z,4.36
2022-11-13T06:53:36.616Z,4.34
2022-11-13T06:56:23.193Z,4.29
2022-11-13T06:59:10.100Z,4.21
2022-11-13T07:01:56.206Z,4.04
2022-11-13T07:04:42.342Z,4.06
2022-11-13T07:07:28.471Z,4.05
2022-11-13T07:10:16.279Z,4.02
2022-11-13T07:13:02.662Z,3.97
2022-11-13T07:15:48.549Z,3.98
2022-11-13T07:18:35.265Z,3.93
2022-11-13T07:21:22.922Z,3.99
2022-11-13T07:24:14.046Z,4.07
2022-11-13T07:27:04.296Z,4.21
2022-11-13T07:29:50.152Z,4.27
2022-11-13T07:32:36.563Z,4.36
2022-11-13T07:35:22.647Z,4.40
2022-11-13T07:38:08.685Z,4.57
2022-11-13T07:40:55.106Z,4.55
2022-11-13T07:43:42.795Z,4.67
2022-11-13T07:46:28.900Z,4.87
2022-11-13T07:49:15.238Z,4.88
2022-11-13T07:52:01.348Z,4.93
2022-11-13T07:54:47.293Z,4.97
2022-11-13T07:57:33.365Z,5.02
2022-11-13T08:00:21.011Z,5.12
2022-11-13T08:03:08.728Z,5.17
2022-11-13T08:06:01.584Z,5.15
2022-11-13T08:08:49.222Z,5.19
2022-11-13T08:11:35.643Z,5.21
2022-11-13T08:14:21.644Z,5.35
2022-11-13T08:17:08.997Z,5.48
2022-11-13T08:19:55.129Z,5.62
2022-11-13T08:22:41.004Z,5.74
2022-11-13T08:25:27.520Z,5.85
2022-11-13T08:28:14.126Z,5.98
2022-11-13T08:31:00.429Z,6.14
2022-11-13T08:33:48.048Z,6.27
2022-11-13T08:36:34.132Z,6.31
2022-11-13T08:39:20.183Z,6.47
2022-11-13T08:42:06.687Z,6.56
2022-11-13T08:44:52.917Z,6.61
2022-11-13T08:47:39.243Z,6.73
2022-11-13T08:50:26.995Z,6.81
2022-11-13T08:53:13.089Z,6.91
2022-11-13T08:56:01.364Z,6.97
2022-11-13T08:58:47.802Z,6.99
2022-11-13T09:01:34.178Z,6.97
2022-11-13T09:04:20.225Z,7.03
2022-11-13T09:07:07.794Z,7.11
2022-11-13T09:09:54.173Z,7.29
2022-11-13T09:12:40.364Z,7.35
2022-11-13T09:15:26.698Z,7.36
2022-11-13T09:18:13.120Z,7.26
2022-11-13T09:21:02.611Z,7.21
2022-11-13T09:23:50.333Z,7.05
2022-11-13T09:26:36.847Z,7.21
2022-11-13T09:29:23.339Z,7.22
2022-11-13T09:32:09.726Z,7.26
2022-11-13T09:34:55.961Z,7.29
2022-11-13T09:37:41.840Z,7.12
2022-11-13T09:40:34.606Z,7.22
2022-11-13T09:43:29.687Z,7.46
2022-11-13T09:46:21.311Z,7.62
2022-11-13T09:49:15.897Z,7.92
2022-11-13T09:52:10.694Z,8.25
2022-11-13T09:54:57.129Z,8.38
2022-11-13T09:57:52.068Z,8.47
2022-11-13T10:00:38.751Z,8.63
2022-11-13T10:03:54.649Z,9.03
2022-11-13T10:06:52.680Z,9.26
2022-11-13T10:09:49.279Z,9.15
2022-11-13T10:12:36.243Z,9.29
2022-11-13T10:15:23.784Z,10.15
2022-11-13T10:18:14.940Z,10.73
2022-11-13T10:21:18.346Z,10.81
2022-11-13T10:24:14.541Z,10.93
2022-11-13T10:27:00.803Z,11.08
2022-11-13T10:29:49.159Z,11.21
2022-11-13T10:32:37.103Z,11.34
2022-11-13T10:35:45.459Z,11.56
2022-11-13T10:38:36.838Z,11.73
2022-11-13T10:41:23.282Z,11.97
2022-11-13T10:44:21.131Z,12.37
2022-11-13T10:47:15.881Z,12.71
2022-11-13T10:50:12.117Z,12.94
2022-11-13T10:52:59.821Z,13.27
2022-11-13T10:55:47.217Z,13.54
2022-11-13T10:58:33.577Z,13.90
2022-11-13T11:01:23.779Z,14.17
2022-11-13T11:04:14.801Z,14.62
2022-11-13T11:07:20.636Z,15.02
2022-11-13T11:10:22.540Z,15.57
2022-11-13T11:13:13.072Z,15.64
2022-11-13T11:16:02.670Z,16.29
2022-11-13T11:18:54.954Z,16.49
2022-11-13T11:21:43.747Z,16.26
2022-11-13T11:24:37.791Z,16.47
2022-11-13T11:27:29.360Z,17.11
2022-11-13T11:30:21.960Z,17.36
2022-11-13T11:33:14.115Z,17.60
2022-11-13T11:36:07.013Z,17.67
2022-11-13T11:39:00.271Z,17.96
2022-11-13T11:41:56.755Z,18.42
2022-11-13T11:44:55.915Z,18.13
2022-11-13T11:47:42.482Z,18.21
2022-11-13T11:50:38.786Z,17.88
2022-11-13T11:53:37.265Z,18.11
2022-11-13T11:56:32.388Z,18.57
2022-11-13T11:59:31.319Z,18.52
2022-11-13T12:02:50.356Z,18.30
2022-11-13T12:05:45.977Z,18.48
2022-11-13T12:08:38.902Z,18.70
2022-11-13T12:11:29.805Z,19.30
2022-11-13T12:14:24.059Z,19.11
2022-11-13T12:17:28.790Z,19.67
2022-11-13T12:20:25.590Z,19.07
2022-11-13T12:23:38.262Z,19.35
2022-11-13T12:26:28.752Z,19.20
2022-11-13T12:29:26.029Z,19.66
2022-11-13T12:32:29.301Z,19.38
2022-11-13T12:35:19.739Z,19.70
2022-11-13T12:38:18.534Z,20.18
2022-11-13T12:41:21.349Z,19.90
2022-11-13T12:44:34.260Z,19.95
2022-11-13T12:47:21.257Z,19.88
2022-11-13T12:50:30.319Z,20.20
2022-11-13T12:53:27.892Z,20.35
2022-11-13T12:56:17.624Z,20.24
2022-11-13T12:59:29.868Z,20.03
2022-11-13T13:02:31.022Z,20.61
2022-11-13T13:05:26.522Z,20.73
2022-11-13T13:08:45.436Z,20.50
2022-11-13T13:11:40.326Z,20.99
2022-11-13T13:14:38.685Z,20.71
2022-11-13T13:17:25.587Z,20.84
2022-11-13T13:20:31.789Z,20.86
2022-11-13T13:23:28.214Z,21.02
2022-11-13T13:26:18.356Z,21.24
2022-11-13T13:29:17.835Z,20.82
2022-11-13T13:32:20.778Z,20.67
2022-11-13T13:35:14.660Z,20.74
2022-11-13T13:38:13.127Z,20.72
2022-11-13T13:41:18.056Z,20.81
2022-11-13T13:44:31.097Z,20.50
2022-11-13T13:47:25.400Z,21.41
2022-11-13T13:50:16.784Z,21.67
2022-11-13T13:53:04.549Z,22.31
2022-11-13T13:55:55.319Z,21.74
2022-11-13T13:58:42.286Z,22.27
2022-11-13T14:01:30.681Z,22.27
2022-11-13T14:04:20.549Z,22.08
2022-11-13T14:07:19.733Z,22.09
2022-11-13T14:10:17.511Z,22.14
2022-11-13T14:13:04.583Z,22.33
2022-11-13T14:16:00.550Z,21.82
2022-11-13T14:18:47.070Z,21.86
2022-11-13T14:21:33.547Z,21.52
2022-11-13T14:24:23.488Z,21.36
2022-11-13T14:27:24.183Z,21.02
2022-11-13T14:30:23.782Z,20.59
2022-11-13T14:33:11.943Z,20.34
2022-11-13T14:35:59.295Z,19.68
2022-11-13T14:38:52.140Z,19.21
2022-11-13T14:41:42.487Z,18.02
2022-11-13T14:44:32.779Z,17.70
2022-11-13T14:47:25.035Z,17.25
2022-11-13T14:50:23.759Z,16.92
2022-11-13T14:53:11.741Z,16.76
2022-11-13T14:55:59.663Z,16.24
2022-11-13T14:58:47.768Z,15.84
2022-11-13T15:01:35.372Z,15.52
2022-11-13T15:04:22.155Z,15.11
2022-11-13T15:07:21.964Z,14.94
2022-11-13T15:10:13.758Z,14.49
2022-11-13T15:13:00.154Z,14.26
2022-11-13T15:15:46.572Z,14.01
2022-11-13T15:18:35.403Z,13.79
2022-11-13T15:21:21.497Z,13.50
2022-11-13T15:24:08.163Z,13.20
2022-11-13T15:26:54.610Z,12.94
2022-11-13T15:29:41.200Z,12.72
2022-11-13T15:32:28.913Z,12.52
2022-11-13T15:35:19.907Z,12.25
2022-11-13T15:38:06.489Z,11.89
2022-11-13T15:40:52.661Z,11.85
2022-11-13T15:43:39.240Z,11.68
2022-11-13T15:46:26.430Z,11.53
2022-11-13T15:49:12.650Z,11.27
2022-11-13T15:52:00.025Z,11.00
2022-11-13T15:54:46.614Z,10.89
2022-11-13T15:57:32.714Z,10.73
2022-11-13T16:00:24.757Z,10.58
2022-11-13T16:03:12.345Z,10.43
2022-11-13T16:05:59.062Z,10.32
2022-11-13T16:08:47.529Z,10.20
2022-11-13T16:11:35.104Z,9.94
2022-11-13T16:14:24.748Z,9.83
2022-11-13T16:17:14.051Z,9.75
2022-11-13T16:20:00.506Z,9.51
2022-11-13T16:22:46.920Z,9.41
2022-11-13T16:25:34.813Z,9.33
2022-11-13T16:28:20.892Z,9.19
2022-11-13T16:31:07.161Z,9.11
2022-11-13T16:33:53.325Z,8.99
2022-11-13T16:36:39.704Z,9.00
2022-11-13T16:39:25.858Z,8.86
2022-11-13T16:42:14.381Z,8.67
2022-11-13T16:45:00.636Z,8.63
2022-11-13T16:47:47.748Z,8.54
2022-11-13T16:50:36.806Z,8.32
2022-11-13T16:53:23.023Z,8.07
2022-11-13T16:56:14.781Z,7.97
2022-11-13T16:59:02.573Z,7.91
2022-11-13T17:01:48.895Z,7.87
2022-11-13T17:04:35.001Z,7.79
2022-11-13T17:07:21.368Z,7.73
2022-11-13T17:10:30.224Z,7.63
2022-11-13T17:13:14.707Z,7.56
2022-11-13T17:16:02.739Z,7.51
2022-11-13T17:18:50.762Z,7.40
2022-11-13T17:21:41.313Z,7.36
2022-11-13T17:24:30.317Z,7.30
2022-11-13T17:27:16.669Z,7.27
2022-11-13T17:30:03.596Z,7.31
2022-11-13T17:32:51.394Z,7.37
2022-11-13T17:35:37.609Z,7.25
2022-11-13T17:38:24.003Z,7.17
2022-11-13T17:41:12.136Z,7.13
2022-11-13T17:44:01.468Z,7.07
2022-11-13T17:46:48.370Z,7.03
2022-11-13T17:49:35.842Z,6.97
2022-11-13T17:52:21.953Z,6.81
2022-11-13T17:55:11.762Z,6.71
2022-11-13T17:58:00.458Z,6.65
2022-11-13T18:00:46.543Z,6.57
2022-11-13T18:03:32.780Z,6.51
2022-11-13T18:06:21.179Z,6.44
2022-11-13T18:09:07.693Z,6.40
2022-11-13T18:11:54.127Z,6.37
2022-11-13T18:14:40.764Z,6.34
2022-11-13T18:17:27.300Z,6.30
2022-11-13T18:20:14.075Z,6.27
2022-11-13T18:23:01.764Z,6.20
2022-11-13T18:25:48.189Z,6.15
2022-11-13T18:28:34.368Z,6.12
2022-11-13T18:31:21.483Z,6.09
2022-11-13T18:34:09.897Z,6.08
2022-11-13T18:36:56.130Z,6.06
2022-11-13T18:39:43.722Z,6.04
2022-11-13T18:42:30.165Z,6.05
2022-11-13T18:45:16.661Z,6.04
2022-11-13T18:48:03.296Z,6.01
2022-11-13T18:50:56.646Z,6.00
2022-11-13T18:53:45.466Z,5.91
2022-11-13T18:56:33.827Z,6.00
2022-11-13T18:59:20.053Z,6.03
2022-11-13T19:02:06.687Z,6.10
2022-11-13T19:04:53.221Z,6.17
2022-11-13T19:07:39.230Z,6.23
2022-11-13T19:10:25.454Z,6.10
2022-11-13T19:13:13.004Z,5.97
2022-11-13T19:16:04.830Z,5.90
2022-11-13T19:18:52.989Z,5.81
2022-11-13T19:21:39.127Z,5.85
2022-11-13T19:24:25.418Z,5.84
2022-11-13T19:27:11.828Z,5.87
2022-11-13T19:29:59.655Z,5.90
2022-11-13T19:32:45.981Z,5.90
2022-11-13T19:35:33.458Z,5.99
2022-11-13T19:38:20.350Z,6.08
2022-11-13T19:41:08.669Z,6.15
2022-11-13T19:43:54.960Z,6.26
2022-11-13T19:46:44.885Z,6.35
2022-11-13T19:49:31.192Z,6.39
2022-11-13T19:52:17.475Z,6.40
2022-11-13T19:55:03.826Z,6.46
2022-11-13T19:57:50.602Z,6.56
2022-11-13T20:00:37.151Z,6.58
2022-11-13T20:03:26.079Z,6.59
2022-11-13T20:06:14.635Z,6.61
2022-11-13T20:09:02.788Z,6.61
2022-11-13T20:11:48.919Z,6.64
2022-11-13T20:14:38.409Z,6.57
2022-11-13T20:17:24.987Z,6.57
2022-11-13T20:20:12.952Z,6.60
2022-11-13T20:22:59.451Z,6.60
2022-11-13T20:25:52.642Z,6.62
2022-11-13T20:28:38.885Z,6.62
2022-11-13T20:31:27.579Z,6.47
2022-11-13T20:34:14.556Z,6.39
2022-11-13T20:37:02.531Z,6.40
2022-11-13T20:39:48.823Z,6.42
2022-11-13T20:42:35.173Z,6.49
2022-11-13T20:45:21.395Z,6.53
2022-11-13T20:48:07.642Z,6.52
2022-11-13T20:50:54.142Z,6.54
2022-11-13T20:53:43.927Z,6.62
2022-11-13T20:56:30.090Z,6.66
2022-11-13T20:59:16.435Z,6.69
2022-11-13T21:02:02.698Z,6.72
2022-11-13T21:04:49.221Z,6.69
2022-11-13T21:07:35.452Z,6.70
2022-11-13T21:10:23.054Z,6.73
2022-11-13T21:13:09.566Z,6.73
2022-11-13T21:15:56.040Z,6.74
2022-11-13T21:18:42.518Z,6.73
2022-11-13T21:21:29.070Z,6.73
2022-11-13T21:24:15.354Z,6.73
2022-11-13T21:27:03.064Z,6.70
2022-11-13T21:29:49.295Z,6.72
2022-11-13T21:32:35.408Z,6.67
2022-11-13T21:35:22.917Z,6.69
2022-11-13T21:38:09.486Z,6.57
2022-11-13T21:41:13.770Z,6.42
2022-11-13T21:44:03.227Z,6.25
2022-11-13T21:46:49.385Z,6.21
2022-11-13T21:49:35.444Z,6.14
2022-11-13T21:52:21.784Z,6.13
2022-11-13T21:55:09.752Z,6.11
2022-11-13T21:57:56.023Z,6.09
2022-11-13T22:00:44.746Z,6.14
2022-11-13T22:03:31.058Z,6.14
2022-11-13T22:06:20.327Z,6.01
2022-11-13T22:09:08.907Z,5.92
2022-11-13T22:11:55.286Z,5.99
2022-11-13T22:14:41.406Z,5.90
2022-11-13T22:17:28.901Z,5.82
2022-11-13T22:20:15.845Z,5.85
2022-11-13T22:23:02.313Z,5.84
2022-11-13T22:25:48.405Z,5.85
2022-11-13T22:28:36.242Z,5.85
2022-11-13T22:31:25.398Z,5.72
2022-11-13T22:34:13.060Z,5.70
2022-11-13T22:36:59.742Z,5.69
2022-11-13T22:39:46.040Z,5.71
2022-11-13T22:42:32.206Z,5.80
2022-11-13T22:45:23.848Z,5.88
2022-11-13T22:48:11.479Z,5.95
2022-11-13T22:51:03.584Z,6.05
2022-11-13T22:53:52.889Z,6.06
2022-11-13T22:56:40.756Z,6.06
2022-11-13T22:59:27.038Z,6.05
2022-11-13T23:02:13.003Z,6.08
2022-11-13T23:04:59.293Z,6.13
2022-11-13T23:07:46.618Z,6.05
2022-11-13T23:10:32.820Z,6.12
2022-11-13T23:13:19.162Z,6.15
2022-11-13T23:16:05.401Z,6.08
2022-11-13T23:18:52.207Z,6.09
2022-11-13T23:21:38.668Z,6.05
2022-11-13T23:24:26.024Z,6.05
2022-11-13T23:27:12.968Z,6.05
2022-11-13T23:29:59.352Z,6.08
2022-11-13T23:32:45.686Z,6.09
2022-11-13T23:35:32.030Z,6.06
2022-11-13T23:38:18.517Z,6.01
2022-11-13T23:41:06.904Z,6.05
2022-11-13T23:44:08.298Z,6.03
2022-11-13T23:46:55.738Z,5.97
2022-11-13T23:49:41.727Z,5.90
2022-11-13T23:52:27.838Z,5.96
2022-11-13T23:55:13.985Z,5.94
2022-11-13T23:58:02.961Z,5.93
